Time;durP1;ratioP1;P1;durP2;ratioP2;P2;SDS_P1;SDS_P2;PMS_P1;PMS_P2;Temp;Humidity;BMP_temperature;BMP_pressure;BME280_temperature;BME280_humidity;BME280_pressure;Samples;Min_cycle;Max_cycle;Signal;HPM_P1;HPM_P2
2022/04/01 00:00:12;;;;;;;10.80;6.80;;;;;;;0.22;86.44;96836.69;108065;1277;23776;-70
2022/04/01 00:02:39;;;;;;;9.80;7.10;;;;;;;0.19;86.23;96833.55;108053;1277;22617;-74
2022/04/01 00:05:07;;;;;;;13.60;8.00;;;;;;;0.16;86.02;96833.21;108043;1277;25226;-77
2022/04/01 00:07:35;;;;;;;14.60;9.80;;;;;;;0.14;85.76;96834.19;108028;1278;22554;-76
2022/04/01 00:10:03;;;;;;;14.00;9.00;;;;;;;0.17;85.69;96829.09;108088;1277;22529;-77
2022/04/01 00:12:30;;;;;;;14.00;9.20;;;;;;;0.17;85.79;96825.83;108140;1277;22613;-75
2022/04/01 00:14:58;;;;;;;15.60;9.80;;;;;;;0.19;86.12;96819.89;108040;1278;22707;-76
2022/04/01 00:17:24;;;;;;;14.50;9.00;;;;;;;0.17;86.21;96821.37;108080;1277;24510;-74
2022/04/01 00:19:52;;;;;;;11.90;7.80;;;;;;;0.15;86.37;96819.95;108082;1277;22655;-71
2022/04/01 00:22:19;;;;;;;11.80;7.70;;;;;;;0.12;86.23;96818.71;108056;1277;24510;-69
2022/04/01 00:24:46;;;;;;;11.40;8.30;;;;;;;0.10;86.09;96820.38;108023;1277;25446;-70
2022/04/01 00:27:13;;;;;;;13.90;8.80;;;;;;;0.09;85.77;96818.84;108053;1277;24316;-71
2022/04/01 00:29:40;;;;;;;15.90;11.70;;;;;;;0.10;85.90;96817.77;108027;1277;25533;-69
2022/04/01 00:32:07;;;;;;;15.50;11.70;;;;;;;0.10;86.01;96820.84;108029;1277;22556;-71
2022/04/01 00:34:36;;;;;;;15.40;10.40;;;;;;;0.11;86.17;96819.12;108043;1277;23226;-69
2022/04/01 00:37:04;;;;;;;15.00;10.00;;;;;;;0.12;86.45;96817.54;108081;1277;22587;-72
2022/04/01 00:39:32;;;;;;;15.40;10.50;;;;;;;0.12;86.61;96814.77;108115;1278;22616;-72
2022/04/01 00:42:01;;;;;;;15.40;10.60;;;;;;;0.08;86.45;96816.35;108059;1277;22574;-75
2022/04/01 00:44:32;;;;;;;15.30;10.20;;;;;;;0.07;86.34;96810.25;108059;1277;22643;-70
2022/04/01 00:47:01;;;;;;;18.40;12.90;;;;;;;0.06;86.13;96810.15;108086;1277;22591;-72
2022/04/01 00:49:30;;;;;;;16.70;11.90;;;;;;;0.08;86.12;96809.86;108083;1277;22647;-72
2022/04/01 00:52:00;;;;;;;17.10;12.70;;;;;;;0.10;86.15;96804.80;108070;1278;22862;-69
2022/04/01 00:54:27;;;;;;;16.90;13.70;;;;;;;0.11;86.39;96805.76;108063;1278;22561;-74
2022/04/01 00:56:55;;;;;;;14.90;10.80;;;;;;;0.10;86.51;96802.23;108078;1277;22529;-73
2022/04/01 00:59:24;;;;;;;13.20;9.60;;;;;;;0.10;86.48;96802.92;108314;1277;22577;-76
2022/04/01 01:01:51;;;;;;;11.20;8.40;;;;;;;0.06;86.41;96804.01;108337;1277;22614;-72
2022/04/01 01:04:20;;;;;;;12.50;9.60;;;;;;;0.01;86.27;96799.92;108306;1277;24323;-73
2022/04/01 01:06:50;;;;;;;17.80;12.10;;;;;;;-0.01;86.00;96802.30;108365;1277;25293;-78
2022/04/01 01:09:18;;;;;;;20.70;15.00;;;;;;;0.02;86.04;96801.78;108328;1277;22614;-76
2022/04/01 01:11:49;;;;;;;19.20;14.60;;;;;;;0.03;86.18;96801.05;108198;1277;22591;-76
2022/04/01 01:14:30;;;;;;;20.70;15.00;;;;;;;0.02;86.46;96797.36;108060;1277;22568;-75
2022/04/01 01:16:58;;;;;;;18.20;14.70;;;;;;;0.03;86.50;96795.91;108073;1278;22546;-71
2022/04/01 01:19:27;;;;;;;16.50;12.30;;;;;;;0.03;86.71;96790.77;108277;1277;22845;-74
2022/04/01 01:21:56;;;;;;;17.80;13.90;;;;;;;0.03;86.80;96789.59;108071;1277;22594;-71
2022/04/01 01:24:37;;;;;;;15.50;11.20;;;;;;;0.03;86.55;96793.70;108070;1277;23096;-71
2022/04/01 01:27:06;;;;;;;15.20;11.60;;;;;;;0.00;86.37;96791.44;108076;1277;22568;-71
2022/04/01 01:29:37;;;;;;;18.40;10.40;;;;;;;-0.04;86.33;96786.19;108067;1277;22695;-71
2022/04/01 01:32:07;;;;;;;19.20;13.70;;;;;;;-0.01;86.33;96783.65;108054;1277;22641;-69
2022/04/01 01:34:34;;;;;;;20.30;15.00;;;;;;;-0.02;86.42;96781.95;108118;1277;23369;-69
2022/04/01 01:37:02;;;;;;;21.40;15.70;;;;;;;-0.01;86.62;96782.07;108075;1277;22535;-70
2022/04/01 01:39:30;;;;;;;19.70;15.30;;;;;;;-0.01;86.82;96779.34;108088;1277;22725;-71
2022/04/01 01:41:58;;;;;;;15.60;11.20;;;;;;;0.01;86.98;96779.41;108061;1277;22623;-70
2022/04/01 01:44:25;;;;;;;16.00;11.90;;;;;;;-0.02;87.11;96779.77;108023;1275;22824;-70
2022/04/01 01:46:53;;;;;;;17.90;12.50;;;;;;;-0.06;86.99;96779.59;108109;1277;22555;-70
2022/04/01 01:49:21;;;;;;;14.20;10.70;;;;;;;-0.05;86.87;96776.98;108133;1277;22585;-70
2022/04/01 01:54:45;;;;;;;21.20;15.30;;;;;;;-0.02;86.49;96773.75;108077;1277;22526;-71
2022/04/01 01:57:14;;;;;;;23.00;18.40;;;;;;;0.00;86.52;96770.21;107926;1277;499961;-70
2022/04/01 01:59:42;;;;;;;21.20;16.70;;;;;;;0.01;86.81;96773.96;108097;1277;22989;-73
2022/04/01 02:02:10;;;;;;;18.00;14.20;;;;;;;0.04;86.96;96777.20;108125;1277;22541;-70
2022/04/01 02:04:39;;;;;;;17.40;13.20;;;;;;;0.05;87.09;96773.76;108074;1277;23358;-72
2022/04/01 02:07:09;;;;;;;14.00;10.10;;;;;;;0.03;86.72;96771.30;108088;1277;22601;-70
2022/04/01 02:09:37;;;;;;;18.20;13.60;;;;;;;0.00;86.64;96765.23;108089;1277;22543;-70
2022/04/01 02:12:05;;;;;;;25.00;17.50;;;;;;;-0.00;86.55;96763.91;108082;1277;22529;-75
2022/04/01 02:14:34;;;;;;;23.80;18.20;;;;;;;0.04;86.30;96762.84;108254;1277;23199;-79
2022/04/01 02:17:01;;;;;;;22.80;16.90;;;;;;;0.04;86.48;96766.79;108087;1277;22848;-72
2022/04/01 02:19:30;;;;;;;23.20;18.70;;;;;;;0.07;86.76;96763.73;108071;1276;22535;-69
2022/04/01 02:21:58;;;;;;;18.90;14.70;;;;;;;0.04;86.84;96761.27;108075;1277;23038;-74
2022/04/01 02:24:26;;;;;;;18.70;14.90;;;;;;;0.04;86.92;96758.23;108081;1277;22618;-69
2022/04/01 02:26:53;;;;;;;18.10;14.40;;;;;;;0.04;86.67;96756.18;108161;1277;22629;-74
2022/04/01 02:29:22;;;;;;;18.50;13.80;;;;;;;0.01;86.46;96755.94;108093;1277;23073;-69
2022/04/01 02:31:51;;;;;;;20.10;15.90;;;;;;;-0.03;86.48;96755.67;108130;1277;22563;-70
2022/04/01 02:34:27;;;;;;;22.20;17.30;;;;;;;0.01;86.46;96753.73;108089;1277;23480;-74
2022/04/01 02:36:57;;;;;;;24.70;18.00;;;;;;;0.01;86.43;96755.48;108051;1277;23205;-69
2022/04/01 02:39:24;;;;;;;23.60;17.00;;;;;;;0.05;86.41;96755.27;108066;1277;22542;-73
2022/04/01 02:41:51;;;;;;;16.40;12.60;;;;;;;0.05;86.53;96757.84;108062;1277;24275;-71
2022/04/01 02:44:18;;;;;;;14.60;11.10;;;;;;;0.03;86.67;96759.98;108082;1277;23447;-76
2022/04/01 02:46:46;;;;;;;17.60;13.60;;;;;;;0.02;86.59;96755.60;108094;1277;22536;-71
2022/04/01 02:49:16;;;;;;;16.40;12.20;;;;;;;0.01;86.28;96756.98;108110;1277;22572;-71
2022/04/01 02:51:45;;;;;;;18.70;13.50;;;;;;;-0.01;86.33;96751.81;108100;1277;22708;-71
2022/04/01 02:54:13;;;;;;;24.60;16.60;;;;;;;0.04;86.08;96753.95;108064;1277;22592;-72
2022/04/01 02:56:41;;;;;;;18.50;15.30;;;;;;;0.08;86.23;96751.52;108069;1277;22685;-71
2022/04/01 02:59:09;;;;;;;19.80;14.50;;;;;;;0.08;86.32;96752.37;108052;1277;22662;-71
2022/04/01 03:01:38;;;;;;;16.30;10.90;;;;;;;0.07;86.45;96757.38;108098;1277;25331;-71
2022/04/01 03:04:09;;;;;;;16.20;12.80;;;;;;;0.06;86.42;96755.88;108093;1277;22696;-72
2022/04/01 03:06:45;;;;;;;16.00;11.40;;;;;;;0.06;86.20;96756.94;108071;1277;22673;-73
2022/04/01 03:09:12;;;;;;;12.20;9.20;;;;;;;0.04;86.00;96757.70;108060;1277;22660;-75
2022/04/01 03:11:40;;;;;;;17.50;13.10;;;;;;;0.03;85.85;96757.06;108046;1277;22537;-75
2022/04/01 03:14:09;;;;;;;22.60;16.50;;;;;;;0.04;85.78;96753.77;108101;1277;22650;-73
2022/04/01 03:16:39;;;;;;;16.10;12.90;;;;;;;0.06;85.90;96751.80;108087;1277;22663;-70
2022/04/01 03:19:10;;;;;;;16.70;12.60;;;;;;;0.07;86.21;96751.40;108077;1277;22714;-75
2022/04/01 03:21:39;;;;;;;12.00;9.90;;;;;;;0.07;86.36;96750.04;108080;1277;22679;-71
2022/04/01 03:24:11;;;;;;;13.90;9.60;;;;;;;0.06;86.29;96749.90;108293;1277;24444;-70
2022/04/01 03:26:39;;;;;;;13.30;9.70;;;;;;;0.04;86.25;96757.71;108063;1277;22559;-69
2022/04/01 03:29:07;;;;;;;10.40;8.40;;;;;;;-0.01;86.15;96758.64;108143;1277;23141;-73
2022/04/01 03:31:38;;;;;;;14.20;10.10;;;;;;;-0.01;85.77;96764.14;108071;1277;23015;-72
2022/04/01 03:34:06;;;;;;;16.60;11.70;;;;;;;-0.03;86.20;96761.14;108076;1277;22529;-71
2022/04/01 03:36:34;;;;;;;16.60;11.10;;;;;;;0.01;85.98;96765.55;108337;1277;25989;-76
2022/04/01 03:39:02;;;;;;;14.60;11.30;;;;;;;0.04;86.08;96765.72;108110;1277;22658;-72
2022/04/01 03:41:30;;;;;;;15.50;9.50;;;;;;;0.05;86.32;96763.30;108074;1277;22631;-69
2022/04/01 03:44:00;;;;;;;31.20;12.40;;;;;;;0.02;86.49;96764.64;108117;1277;22717;-72
2022/04/01 03:46:40;;;;;;;21.70;8.70;;;;;;;-0.02;86.40;96762.95;108031;1277;22617;-72
2022/04/01 03:49:12;;;;;;;11.80;7.40;;;;;;;-0.02;85.96;96762.65;108049;1277;22640;-71
2022/04/01 03:51:43;;;;;;;16.30;10.20;;;;;;;-0.03;85.91;96764.02;108077;1277;23115;-69
2022/04/01 03:54:10;;;;;;;15.60;10.80;;;;;;;-0.02;85.86;96761.27;108101;1277;22636;-70
2022/04/01 03:56:38;;;;;;;12.30;9.10;;;;;;;0.02;86.15;96761.58;108018;1277;25268;-69
2022/04/01 03:59:09;;;;;;;11.40;8.20;;;;;;;0.03;86.22;96762.71;108040;1277;22640;-69
2022/04/01 04:01:37;;;;;;;9.80;7.00;;;;;;;0.03;86.49;96766.81;108134;1277;22526;-72
2022/04/01 04:04:06;;;;;;;11.40;7.50;;;;;;;0.02;86.29;96766.34;108101;1277;22548;-71
2022/04/01 04:06:37;;;;;;;10.10;7.70;;;;;;;-0.01;86.11;96769.28;108094;1277;22583;-71
2022/04/01 04:09:05;;;;;;;10.40;7.70;;;;;;;-0.01;85.85;96767.54;108078;1277;22613;-71
2022/04/01 04:11:33;;;;;;;15.00;9.40;;;;;;;0.01;85.78;96763.86;108044;1277;26198;-69
2022/04/01 04:14:04;;;;;;;12.70;9.50;;;;;;;-0.01;86.08;96757.98;108075;1277;22590;-69
2022/04/01 04:16:43;;;;;;;12.80;9.20;;;;;;;0.00;86.18;96754.13;108081;1277;23068;-77
2022/04/01 04:19:20;;;;;;;9.90;7.00;;;;;;;-0.01;86.54;96752.32;108103;1277;25461;-69
2022/04/01 04:21:55;;;;;;;9.90;7.30;;;;;;;-0.04;86.45;96755.73;108078;1277;22566;-71
2022/04/01 04:24:30;;;;;;;9.40;7.00;;;;;;;-0.06;86.21;96760.11;108084;1277;22567;-70
2022/04/01 04:27:27;;;;;;;8.70;6.20;;;;;;;-0.09;86.18;96767.27;108046;1277;22666;-73
2022/04/01 04:30:05;;;;;;;11.20;7.80;;;;;;;-0.08;85.97;96769.09;108055;1277;24428;-71
2022/04/01 04:32:33;;;;;;;13.00;9.40;;;;;;;-0.05;85.76;96770.31;108035;1277;23139;-73
2022/04/01 04:35:06;;;;;;;13.60;8.90;;;;;;;-0.04;85.97;96771.48;108046;1277;23067;-70
2022/04/01 04:37:36;;;;;;;12.20;8.30;;;;;;;-0.04;86.24;96773.86;108138;1277;22575;-70
2022/04/01 04:40:05;;;;;;;11.40;6.70;;;;;;;-0.04;86.42;96778.30;108035;1277;23429;-73
2022/04/01 04:42:33;;;;;;;9.20;6.40;;;;;;;-0.05;86.64;96782.96;108217;1277;22562;-71
2022/04/01 04:45:00;;;;;;;8.70;5.80;;;;;;;-0.03;86.32;96785.29;108058;1277;22543;-73
2022/04/01 04:47:28;;;;;;;7.20;5.40;;;;;;;-0.06;86.13;96787.98;108009;1277;22569;-77
2022/04/01 04:50:00;;;;;;;12.00;7.70;;;;;;;-0.08;85.99;96789.63;108052;1277;22564;-76
2022/04/01 04:52:32;;;;;;;12.00;8.50;;;;;;;-0.05;86.13;96788.65;108292;1277;22544;-73
2022/04/01 04:55:00;;;;;;;11.40;7.70;;;;;;;-0.02;86.12;96786.27;108111;1277;22547;-76
2022/04/01 04:57:28;;;;;;;10.10;7.00;;;;;;;-0.00;86.35;96782.75;108066;1277;22548;-76
2022/04/01 04:59:58;;;;;;;8.50;5.90;;;;;;;-0.01;86.51;96781.92;108120;1277;22887;-75
2022/04/01 05:02:34;;;;;;;6.60;4.60;;;;;;;-0.05;86.54;96785.54;108053;1277;22559;-73
2022/04/01 05:05:04;;;;;;;8.00;4.60;;;;;;;-0.10;86.38;96780.69;108079;1277;22583;-71
2022/04/01 05:08:12;;;;;;;19.60;9.90;;;;;;;-0.11;86.26;96783.48;108055;1277;23344;-74
2022/04/01 05:10:52;;;;;;;11.50;8.00;;;;;;;-0.12;86.46;96782.83;107480;1284;22715;-72
2022/04/01 05:14:00;;;;;;;12.70;7.80;;;;;;;-0.11;86.52;96787.94;107446;1284;24275;-70
2022/04/01 05:16:47;;;;;;;8.70;5.20;;;;;;;-0.06;86.76;96783.39;106795;1290;22551;-78
2022/04/01 05:19:19;;;;;;;9.40;6.50;;;;;;;-0.08;86.79;96784.30;106812;1289;23458;-70
2022/04/01 05:21:46;;;;;;;13.00;6.60;;;;;;;-0.09;86.60;96782.30;106837;1290;22598;-71
2022/04/01 05:24:19;;;;;;;11.80;6.70;;;;;;;-0.12;86.52;96778.91;106778;1290;22596;-70
2022/04/01 05:26:53;;;;;;;12.50;8.50;;;;;;;-0.11;86.41;96783.30;106779;1290;22568;-70
2022/04/01 05:29:26;;;;;;;14.80;9.90;;;;;;;-0.08;86.37;96777.83;106787;1290;22673;-74
2022/04/01 05:32:02;;;;;;;;;;;;;;;-0.08;86.56;96778.84;106666;1290;24352;-71
2022/04/01 05:34:46;;;;;;;16.40;9.60;;;;;;;-0.06;86.53;96787.97;106794;1290;22708;-69
2022/04/01 05:37:15;;;;;;;16.70;10.90;;;;;;;-0.04;86.69;96791.47;106774;1289;23187;-70
2022/04/01 05:39:47;;;;;;;15.60;9.60;;;;;;;-0.04;86.73;96792.01;106759;1290;22568;-70
2022/04/01 05:42:18;;;;;;;15.60;10.60;;;;;;;-0.06;86.51;96785.59;106783;1290;22600;-69
2022/04/01 05:44:47;;;;;;;12.60;7.60;;;;;;;-0.06;86.23;96786.14;106952;1285;22552;-70
2022/04/01 05:47:16;;;;;;;13.80;9.00;;;;;;;-0.07;86.09;96789.77;107398;1284;22537;-71
2022/04/01 05:49:46;;;;;;;14.90;10.00;;;;;;;-0.06;86.37;96792.45;107398;1284;23394;-72
2022/04/01 05:52:13;;;;;;;16.60;10.50;;;;;;;-0.03;86.28;96794.02;107669;1277;22709;-69
2022/04/01 05:54:42;;;;;;;14.10;8.80;;;;;;;-0.01;86.40;96792.52;108056;1277;25475;-71
2022/04/01 05:57:10;;;;;;;14.50;9.00;;;;;;;-0.01;86.56;96792.02;108059;1277;22583;-71
2022/04/01 05:59:38;;;;;;;13.70;9.10;;;;;;;-0.04;86.43;96792.87;108083;1277;22540;-73
2022/04/01 06:02:20;;;;;;;16.40;8.70;;;;;;;-0.03;86.30;96795.38;108077;1277;25465;-72
2022/04/01 06:05:05;;;;;;;13.40;7.80;;;;;;;-0.05;86.05;96796.67;108063;1277;22813;-71
2022/04/01 06:07:55;;;;;;;26.10;15.60;;;;;;;-0.03;85.84;96804.25;108046;1277;22625;-71
2022/04/01 06:10:34;;;;;;;33.70;21.70;;;;;;;-0.00;85.84;96808.74;107201;1285;25319;-70
2022/04/01 06:13:20;;;;;;;31.70;20.60;;;;;;;0.04;85.84;96809.91;107138;1285;22566;-71
2022/04/01 06:16:23;;;;;;;21.00;12.00;;;;;;;0.07;86.22;96805.30;107165;1285;22791;-74
2022/04/01 06:19:10;;;;;;;23.10;13.20;;;;;;;0.11;86.25;96802.67;107419;1283;22550;-76
2022/04/01 06:21:48;;;;;;;17.70;10.90;;;;;;;0.13;85.97;96803.95;107407;1284;22542;-69
2022/04/01 06:24:32;;;;;;;21.40;12.70;;;;;;;0.09;85.61;96800.74;107392;1284;22531;-73
2022/04/01 06:27:01;;;;;;;12.90;9.30;;;;;;;0.16;85.63;96797.99;107435;1284;23543;-71
2022/04/01 06:29:42;;;;;;;11.90;8.40;;;;;;;0.15;85.69;96798.02;107430;1283;22605;-74
2022/04/01 06:32:43;;;;;;;12.60;8.40;;;;;;;0.18;85.80;96798.21;107424;1284;24433;-71
2022/04/01 06:35:20;;;;;;;70.20;48.90;;;;;;;0.18;85.78;96800.27;107394;1284;22533;-71
2022/04/01 06:38:04;;;;;;;24.90;19.20;;;;;;;0.16;85.62;96798.48;107403;1284;22742;-69
2022/04/01 06:40:55;;;;;;;24.70;20.50;;;;;;;0.15;85.52;96805.58;107448;1284;22617;-69
2022/04/01 06:43:23;;;;;;;26.60;18.60;;;;;;;0.14;85.35;96805.96;107442;1284;26553;-70
2022/04/01 06:45:50;;;;;;;36.30;23.70;;;;;;;0.14;85.11;96807.52;107395;1284;22587;-74
2022/04/01 06:48:17;;;;;;;30.00;20.30;;;;;;;0.16;84.94;96807.05;107747;1279;22562;-71
2022/04/01 06:50:49;;;;;;;21.90;15.00;;;;;;;0.18;85.25;96805.74;108022;1277;22549;-72
2022/04/01 06:53:17;;;;;;;21.80;16.50;;;;;;;0.20;85.35;96806.33;108052;1277;22570;-70
2022/04/01 06:55:45;;;;;;;14.20;9.60;;;;;;;0.18;85.36;96804.73;108056;1277;23161;-70
2022/04/01 06:58:12;;;;;;;17.30;11.90;;;;;;;0.19;85.37;96810.99;108057;1277;22550;-75
2022/04/01 07:00:40;;;;;;;21.60;11.90;;;;;;;0.22;84.90;96807.23;108060;1277;22639;-75
2022/04/01 07:03:08;;;;;;;28.80;17.40;;;;;;;0.19;84.82;96809.45;108040;1277;22522;-76
2022/04/01 07:05:36;;;;;;;34.40;18.70;;;;;;;0.20;84.56;96805.64;108081;1277;22569;-76
2022/04/01 07:08:04;;;;;;;22.70;14.00;;;;;;;0.26;84.81;96808.73;108065;1277;22608;-78
2022/04/01 07:10:31;;;;;;;13.60;10.10;;;;;;;0.34;84.74;96807.77;108080;1277;22610;-74
2022/04/01 07:12:58;;;;;;;17.20;11.40;;;;;;;0.37;84.76;96813.45;108000;1277;22593;-71
2022/04/01 07:15:26;;;;;;;14.90;9.60;;;;;;;0.42;84.60;96816.13;108046;1277;22563;-71
2022/04/01 07:17:54;;;;;;;39.50;22.80;;;;;;;0.38;84.53;96813.73;108009;1277;23031;-72
2022/04/01 07:20:21;;;;;;;22.70;14.40;;;;;;;0.39;84.33;96816.75;108031;1277;22585;-75
2022/04/01 07:22:51;;;;;;;32.90;21.10;;;;;;;0.38;83.94;96812.17;108029;1277;22550;-70
2022/04/01 07:25:18;;;;;;;23.90;15.10;;;;;;;0.41;84.06;96810.70;108069;1277;22555;-77
2022/04/01 07:27:46;;;;;;;24.60;16.50;;;;;;;0.48;83.72;96810.83;108066;1277;23165;-70
2022/04/01 07:30:13;;;;;;;23.30;15.20;;;;;;;0.55;83.77;96810.58;108045;1277;22610;-69
2022/04/01 07:32:41;;;;;;;30.10;19.90;;;;;;;0.66;83.93;96814.63;108062;1277;22741;-73
2022/04/01 07:35:11;;;;;;;26.80;18.40;;;;;;;0.72;83.62;96814.96;108169;1277;22680;-70
2022/04/01 07:37:38;;;;;;;14.30;8.60;;;;;;;0.79;83.75;96819.77;108041;1277;22760;-72
2022/04/01 07:40:07;;;;;;;16.80;12.00;;;;;;;0.80;83.56;96823.63;108055;1277;23039;-73
2022/04/01 07:42:35;;;;;;;30.40;20.40;;;;;;;0.76;82.92;96818.73;108087;1277;22651;-69
2022/04/01 07:45:03;;;;;;;23.90;18.00;;;;;;;0.78;83.03;96819.09;108052;1277;22805;-78
2022/04/01 07:47:32;;;;;;;30.80;22.00;;;;;;;0.82;82.33;96823.14;108038;1277;22559;-73
2022/04/01 07:50:03;;;;;;;25.80;16.40;;;;;;;0.88;82.55;96823.55;108082;1277;23356;-70
2022/04/01 07:52:39;;;;;;;28.60;20.70;;;;;;;0.94;82.34;96824.71;108025;1277;22543;-73
2022/04/01 07:55:13;;;;;;;16.30;11.40;;;;;;;0.96;82.39;96825.12;108029;1277;22535;-74
2022/04/01 07:57:41;;;;;;;17.10;11.90;;;;;;;0.97;82.17;96823.52;108049;1277;22613;-70
2022/04/01 08:00:10;;;;;;;29.10;16.70;;;;;;;0.99;81.92;96823.91;108031;1277;22528;-77
2022/04/01 08:02:37;;;;;;;17.90;11.00;;;;;;;1.07;81.85;96824.55;108066;1277;22556;-75
2022/04/01 08:05:05;;;;;;;16.30;10.50;;;;;;;1.08;81.97;96819.79;107961;1277;22558;-74
2022/04/01 08:07:32;;;;;;;17.50;11.80;;;;;;;1.15;81.89;96820.33;108333;1277;22560;-73
2022/04/01 08:09:59;;;;;;;13.70;9.30;;;;;;;1.21;81.27;96820.16;108049;1277;22563;-75
2022/04/01 08:12:26;;;;;;;14.90;10.60;;;;;;;1.22;81.83;96823.85;108026;1277;22610;-71
2022/04/01 08:14:53;;;;;;;16.80;9.50;;;;;;;1.26;81.94;96826.41;108051;1277;25568;-74
2022/04/01 08:17:20;;;;;;;21.20;12.80;;;;;;;1.24;81.95;96828.39;108037;1277;22563;-71
2022/04/01 08:19:49;;;;;;;13.60;9.20;;;;;;;1.28;81.70;96833.30;108026;1277;24236;-71
2022/04/01 08:22:18;;;;;;;14.10;8.50;;;;;;;1.32;81.38;96833.23;108007;1277;22607;-70
2022/04/01 08:24:46;;;;;;;19.90;13.40;;;;;;;1.36;81.00;96836.80;108022;1277;22535;-72
2022/04/01 08:27:14;;;;;;;13.40;8.90;;;;;;;1.37;80.96;96842.90;108030;1277;22601;-70
2022/04/01 08:29:41;;;;;;;15.20;10.50;;;;;;;1.41;80.70;96845.40;108055;1277;22767;-72
2022/04/01 08:32:08;;;;;;;27.00;16.00;;;;;;;1.41;80.58;96852.60;107993;1277;22555;-70
2022/04/01 08:34:37;;;;;;;19.70;13.70;;;;;;;1.40;80.29;96846.46;107989;1276;25344;-72
2022/04/01 08:37:06;;;;;;;13.80;11.20;;;;;;;1.31;79.88;96850.06;107995;1277;22619;-70
2022/04/01 08:39:34;;;;;;;22.40;17.20;;;;;;;1.26;80.17;96848.30;108041;1277;22706;-71
2022/04/01 08:42:04;;;;;;;18.60;14.70;;;;;;;1.20;80.17;96849.20;108043;1277;22563;-74
2022/04/01 08:44:31;;;;;;;15.40;12.10;;;;;;;1.18;79.91;96856.48;108024;1277;22639;-71
2022/04/01 08:46:59;;;;;;;19.50;14.40;;;;;;;1.15;80.42;96854.07;108013;1277;23030;-71
2022/04/01 08:49:26;;;;;;;15.10;10.90;;;;;;;1.18;80.79;96854.92;108004;1277;22534;-70
2022/04/01 08:51:53;;;;;;;24.30;14.50;;;;;;;1.22;81.13;96854.02;108043;1278;22563;-77
2022/04/01 08:54:20;;;;;;;18.60;12.50;;;;;;;1.20;80.68;96858.62;108151;1277;22740;-70
2022/04/01 08:56:47;;;;;;;24.40;14.20;;;;;;;1.12;80.31;96858.70;108036;1277;22544;-70
2022/04/01 08:59:14;;;;;;;27.10;17.50;;;;;;;1.12;80.25;96863.49;107999;1277;22573;-70
2022/04/01 09:01:43;;;;;;;34.90;20.20;;;;;;;1.14;80.17;96864.94;108005;1278;22736;-72
2022/04/01 09:04:21;;;;;;;23.90;14.00;;;;;;;1.15;80.11;96862.66;108042;1278;22629;-74
2022/04/01 09:06:50;;;;;;;24.80;14.00;;;;;;;1.23;80.25;96861.71;108024;1278;22556;-72
2022/04/01 09:09:24;;;;;;;47.10;23.20;;;;;;;1.24;80.53;96857.35;108067;1277;22595;-71
2022/04/01 09:12:09;;;;;;;47.50;22.90;;;;;;;1.32;80.95;96857.91;108067;1277;22691;-70
2022/04/01 09:14:37;;;;;;;44.60;19.70;;;;;;;1.40;80.83;96862.95;108271;1277;22538;-75
2022/04/01 09:17:06;;;;;;;27.80;15.80;;;;;;;1.41;80.41;96867.04;108272;1277;22626;-73
2022/04/01 09:19:35;;;;;;;25.70;14.10;;;;;;;1.40;80.04;96869.66;108232;1276;22584;-72
2022/04/01 09:22:25;;;;;;;29.90;12.60;;;;;;;1.40;79.62;96872.06;108216;1277;22543;-71
2022/04/01 09:25:02;;;;;;;54.50;23.90;;;;;;;1.34;79.23;96870.86;108315;1279;22560;-75
2022/04/01 09:27:43;;;;;;;103.00;47.60;;;;;;;1.34;79.56;96880.14;108275;1277;24249;-75
2022/04/01 09:30:18;;;;;;;87.00;44.90;;;;;;;1.32;79.78;96875.27;108171;1277;25461;-75
2022/04/01 09:32:55;;;;;;;53.40;27.40;;;;;;;1.25;79.60;96873.61;108289;1277;22559;-72
2022/04/01 09:35:25;;;;;;;52.30;28.80;;;;;;;1.23;79.56;96876.43;108296;1277;22560;-74
2022/04/01 09:37:58;;;;;;;32.60;17.70;;;;;;;1.27;79.31;96876.91;108287;1277;22571;-71
2022/04/01 09:40:26;;;;;;;27.30;14.20;;;;;;;1.25;79.09;96885.09;108272;1277;22534;-71
2022/04/01 09:42:56;;;;;;;28.30;14.40;;;;;;;1.27;79.09;96880.53;108296;1277;22616;-72
2022/04/01 09:45:32;;;;;;;28.50;14.70;;;;;;;1.33;79.29;96886.35;108293;1276;22549;-74
2022/04/01 09:48:00;;;;;;;35.00;17.20;;;;;;;1.37;79.82;96884.91;108226;1277;22534;-72
2022/04/01 09:50:30;;;;;;;54.30;24.60;;;;;;;1.39;79.69;96885.80;108285;1277;22639;-72
2022/04/01 09:53:21;;;;;;;49.70;26.40;;;;;;;1.38;79.53;96887.93;108269;1277;22541;-73
2022/04/01 09:55:52;;;;;;;29.00;14.80;;;;;;;1.42;79.16;96888.05;108283;1277;24449;-72
2022/04/01 09:58:22;;;;;;;31.50;17.10;;;;;;;1.39;79.09;96878.46;108281;1277;22573;-71
2022/04/01 10:00:51;;;;;;;39.90;21.10;;;;;;;1.43;79.08;96878.20;108269;1277;22563;-71
2022/04/01 10:03:19;;;;;;;45.90;24.60;;;;;;;1.48;79.22;96876.23;108287;1277;22556;-72
2022/04/01 10:05:47;;;;;;;35.30;19.20;;;;;;;1.49;79.31;96875.29;108296;1277;22518;-71
2022/04/01 10:08:15;;;;;;;19.20;11.50;;;;;;;1.53;79.87;96873.36;108311;1277;22565;-71
2022/04/01 10:10:43;;;;;;;16.00;9.90;;;;;;;1.58;79.49;96870.16;108326;1277;22637;-75
2022/04/01 10:13:30;;;;;;;22.80;14.00;;;;;;;1.57;79.14;96871.23;108301;1277;25434;-71
2022/04/01 10:15:59;;;;;;;16.10;10.70;;;;;;;1.57;78.78;96872.81;108325;1277;22751;-71
2022/04/01 10:18:27;;;;;;;29.10;17.00;;;;;;;1.55;78.70;96874.30;108301;1277;22549;-71
2022/04/01 10:20:55;;;;;;;28.20;17.70;;;;;;;1.55;78.82;96878.75;108274;1277;24233;-72
2022/04/01 10:23:25;;;;;;;261.30;90.50;;;;;;;1.52;78.46;96878.41;108319;1277;22560;-72
2022/04/01 10:26:07;;;;;;;68.60;32.40;;;;;;;1.53;78.72;96880.40;108291;1277;22549;-72
2022/04/01 10:28:34;;;;;;;68.30;40.10;;;;;;;1.58;78.97;96884.95;108317;1277;23798;-73
2022/04/01 10:31:03;;;;;;;29.20;17.40;;;;;;;1.57;78.93;96885.17;108291;1277;22575;-72
2022/04/01 10:33:38;;;;;;;19.30;12.10;;;;;;;1.53;78.45;96888.96;108277;1278;22661;-78
2022/04/01 10:36:21;;;;;;;24.40;16.70;;;;;;;1.42;78.28;96895.59;108262;1277;22609;-78
2022/04/01 10:38:50;;;;;;;25.70;17.40;;;;;;;1.37;78.23;96898.46;108286;1277;22629;-77
2022/04/01 10:41:18;;;;;;;26.20;17.90;;;;;;;1.36;78.25;96892.19;108272;1277;22561;-70
2022/04/01 10:43:51;;;;;;;125.40;62.90;;;;;;;1.39;78.33;96890.61;108283;1277;22537;-74
2022/04/01 10:46:19;;;;;;;53.90;28.40;;;;;;;1.51;78.47;96889.30;108289;1277;22557;-77
2022/04/01 10:52:06;;;;;;;30.80;17.20;;;;;;;1.71;79.06;96897.54;108272;1277;22655;-75
2022/04/01 10:54:33;;;;;;;39.30;23.30;;;;;;;1.66;78.42;96900.25;108281;1277;22550;-74
2022/04/01 10:57:08;;;;;;;29.70;15.50;;;;;;;1.54;78.29;96908.51;108287;1277;22563;-72
2022/04/01 10:59:43;;;;;;;70.30;40.80;;;;;;;1.46;78.21;96907.02;108300;1277;22553;-74
2022/04/01 11:02:15;;;;;;;46.90;28.40;;;;;;;1.44;78.12;96904.59;108296;1278;22550;-76
2022/04/01 11:04:44;;;;;;;47.60;27.30;;;;;;;1.42;78.07;96905.23;108295;1277;24231;-76
2022/04/01 11:07:28;;;;;;;62.30;37.80;;;;;;;1.45;77.85;96907.93;108272;1277;23465;-73
2022/04/01 11:10:01;;;;;;;39.80;24.50;;;;;;;1.49;78.16;96908.92;108285;1278;22548;-71
2022/04/01 11:12:50;;;;;;;45.20;27.60;;;;;;;1.46;78.12;96911.35;108268;1278;22532;-81
2022/04/01 11:15:24;;;;;;;36.10;21.30;;;;;;;1.45;78.70;96910.89;108280;1277;22535;-75
2022/04/01 11:17:57;;;;;;;29.80;17.80;;;;;;;1.41;78.22;96915.02;108317;1277;22620;-73
2022/04/01 11:20:27;;;;;;;30.40;19.20;;;;;;;1.36;77.79;96910.19;108284;1277;22570;-76
2022/04/01 11:22:54;;;;;;;30.70;18.70;;;;;;;1.28;77.80;96912.35;108293;1278;22554;-74
2022/04/01 11:25:33;;;;;;;35.80;21.20;;;;;;;1.24;77.69;96913.40;108256;1277;22567;-81
2022/04/01 11:28:08;;;;;;;25.60;16.70;;;;;;;1.24;77.97;96912.59;108271;1277;22623;-71
2022/04/01 11:30:43;;;;;;;29.20;19.00;;;;;;;1.23;77.89;96909.36;108252;1278;22547;-72
2022/04/01 11:33:10;;;;;;;27.80;16.70;;;;;;;1.27;77.69;96911.04;108300;1278;22534;-72
2022/04/01 11:35:44;;;;;;;38.50;22.80;;;;;;;1.33;78.02;96914.33;108268;1277;22535;-78
2022/04/01 11:38:15;;;;;;;43.30;24.00;;;;;;;1.39;78.49;96915.16;108271;1276;22691;-71
2022/04/01 11:40:45;;;;;;;33.50;21.00;;;;;;;1.47;78.54;96912.67;108267;1278;26511;-71
2022/04/01 11:43:20;;;;;;;40.60;26.60;;;;;;;1.47;78.26;96907.13;108312;1277;22727;-74